sensor_id;sensor_type;location;lat;lon;timestamp;temperature;humidity
25949;DHT22;13961;51.178;4.448;2022-09-30T00:01:16;9.70;99.90
25949;DHT22;13961;51.178;4.448;2022-09-30T00:03:42;9.70;99.90
25949;DHT22;13961;51.178;4.448;2022-09-30T00:06:08;9.80;99.90
25949;DHT22;13961;51.178;4.448;2022-09-30T00:08:35;9.90;99.90
25949;DHT22;13961;51.178;4.448;2022-09-30T00:13:31;9.60;99.90
25949;DHT22;13961;51.178;4.448;2022-09-30T00:15:57;9.50;99.90
25949;DHT22;13961;51.178;4.448;2022-09-30T00:18:23;9.60;99.90
25949;DHT22;13961;51.178;4.448;2022-09-30T00:20:49;9.50;99.90
25949;DHT22;13961;51.178;4.448;2022-09-30T00:23:14;9.50;99.90
25949;DHT22;13961;51.178;4.448;2022-09-30T00:25:40;9.50;99.90
25949;DHT22;13961;51.178;4.448;2022-09-30T00:28:05;9.40;99.90
25949;DHT22;13961;51.178;4.448;2022-09-30T00:30:32;9.60;99.90
25949;DHT22;13961;51.178;4.448;2022-09-30T00:32:59;9.60;99.90
25949;DHT22;13961;51.178;4.448;2022-09-30T00:35:25;9.60;99.90
25949;DHT22;13961;51.178;4.448;2022-09-30T00:37:50;9.50;99.90
25949;DHT22;13961;51.178;4.448;2022-09-30T00:40:18;9.50;99.90
25949;DHT22;13961;51.178;4.448;2022-09-30T00:42:44;9.50;99.90
25949;DHT22;13961;51.178;4.448;2022-09-30T00:45:10;9.70;99.90
25949;DHT22;13961;51.178;4.448;2022-09-30T00:47:56;9.60;99.90
25949;DHT22;13961;51.178;4.448;2022-09-30T00:58:06;9.60;99.90
25949;DHT22;13961;51.178;4.448;2022-09-30T01:00:33;9.60;99.90
25949;DHT22;13961;51.178;4.448;2022-09-30T01:03:00;9.90;99.90
25949;DHT22;13961;51.178;4.448;2022-09-30T01:05:26;9.70;99.90
25949;DHT22;13961;51.178;4.448;2022-09-30T01:07:55;9.70;99.90
25949;DHT22;13961;51.178;4.448;2022-09-30T01:10:22;9.60;99.90
25949;DHT22;13961;51.178;4.448;2022-09-30T01:12:48;9.60;99.90
25949;DHT22;13961;51.178;4.448;2022-09-30T01:15:13;9.80;99.90
25949;DHT22;13961;51.178;4.448;2022-09-30T01:28:38;9.70;99.90
25949;DHT22;13961;51.178;4.448;2022-09-30T01:31:20;9.50;99.90
25949;DHT22;13961;51.178;4.448;2022-09-30T01:34:06;9.30;99.90
25949;DHT22;13961;51.178;4.448;2022-09-30T01:39:52;9.20;99.90
25949;DHT22;13961;51.178;4.448;2022-09-30T01:42:27;9.30;99.90
25949;DHT22;13961;51.178;4.448;2022-09-30T01:45:49;9.30;99.90
25949;DHT22;13961;51.178;4.448;2022-09-30T01:51:08;9.20;99.90
25949;DHT22;13961;51.178;4.448;2022-09-30T01:54:00;9.30;99.90
25949;DHT22;13961;51.178;4.448;2022-09-30T01:59:22;9.40;99.90
25949;DHT22;13961;51.178;4.448;2022-09-30T02:01:59;9.40;99.90
25949;DHT22;13961;51.178;4.448;2022-09-30T02:04:41;9.50;99.90
25949;DHT22;13961;51.178;4.448;2022-09-30T02:07:12;9.50;99.90
25949;DHT22;13961;51.178;4.448;2022-09-30T02:09:45;9.70;99.90
25949;DHT22;13961;51.178;4.448;2022-09-30T02:12:14;9.40;99.90
25949;DHT22;13961;51.178;4.448;2022-09-30T02:14:46;9.40;99.90
25949;DHT22;13961;51.178;4.448;2022-09-30T02:17:34;9.30;99.90
25949;DHT22;13961;51.178;4.448;2022-09-30T02:20:08;9.30;99.90
25949;DHT22;13961;51.178;4.448;2022-09-30T02:22:42;9.30;99.90
25949;DHT22;13961;51.178;4.448;2022-09-30T02:25:17;9.50;99.90
25949;DHT22;13961;51.178;4.448;2022-09-30T02:27:49;9.30;99.90
25949;DHT22;13961;51.178;4.448;2022-09-30T02:30:17;9.30;99.90
25949;DHT22;13961;51.178;4.448;2022-09-30T02:32:49;9.30;99.90
25949;DHT22;13961;51.178;4.448;2022-09-30T02:35:36;9.30;99.90
25949;DHT22;13961;51.178;4.448;2022-09-30T02:38:24;9.30;99.90
25949;DHT22;13961;51.178;4.448;2022-09-30T02:40:57;9.30;99.90
25949;DHT22;13961;51.178;4.448;2022-09-30T02:43:27;9.30;99.90
25949;DHT22;13961;51.178;4.448;2022-09-30T02:46:09;9.30;99.90
25949;DHT22;13961;51.178;4.448;2022-09-30T02:59:15;9.20;99.90
25949;DHT22;13961;51.178;4.448;2022-09-30T03:01:42;9.20;99.90
25949;DHT22;13961;51.178;4.448;2022-09-30T03:04:10;9.20;99.90
25949;DHT22;13961;51.178;4.448;2022-09-30T03:06:37;9.30;99.90
25949;DHT22;13961;51.178;4.448;2022-09-30T03:09:04;9.30;99.90
25949;DHT22;13961;51.178;4.448;2022-09-30T03:11:30;9.20;99.90
25949;DHT22;13961;51.178;4.448;2022-09-30T03:30:19;9.00;99.90
25949;DHT22;13961;51.178;4.448;2022-09-30T03:33:06;8.90;99.90
25949;DHT22;13961;51.178;4.448;2022-09-30T03:35:46;8.90;99.90
25949;DHT22;13961;51.178;4.448;2022-09-30T03:38:41;9.00;99.90
25949;DHT22;13961;51.178;4.448;2022-09-30T03:46:48;8.80;99.90
25949;DHT22;13961;51.178;4.448;2022-09-30T03:49:29;8.90;99.90
25949;DHT22;13961;51.178;4.448;2022-09-30T03:51:58;8.90;99.90
25949;DHT22;13961;51.178;4.448;2022-09-30T03:54:24;8.90;99.90
25949;DHT22;13961;51.178;4.448;2022-09-30T03:56:50;9.00;99.90
25949;DHT22;13961;51.178;4.448;2022-09-30T03:59:23;9.00;99.90
25949;DHT22;13961;51.178;4.448;2022-09-30T04:01:50;8.90;99.90
25949;DHT22;13961;51.178;4.448;2022-09-30T04:04:16;9.00;99.90
25949;DHT22;13961;51.178;4.448;2022-09-30T04:06:42;9.00;99.90
25949;DHT22;13961;51.178;4.448;2022-09-30T04:09:08;8.90;99.90
25949;DHT22;13961;51.178;4.448;2022-09-30T04:11:34;8.90;99.90
25949;DHT22;13961;51.178;4.448;2022-09-30T04:14:01;8.80;99.90
25949;DHT22;13961;51.178;4.448;2022-09-30T04:16:30;8.90;99.90
25949;DHT22;13961;51.178;4.448;2022-09-30T04:18:56;8.90;99.90
25949;DHT22;13961;51.178;4.448;2022-09-30T04:21:22;8.90;99.90
25949;DHT22;13961;51.178;4.448;2022-09-30T04:23:48;8.90;99.90
25949;DHT22;13961;51.178;4.448;2022-09-30T04:26:23;9.10;99.90
25949;DHT22;13961;51.178;4.448;2022-09-30T04:28:51;8.80;99.90
25949;DHT22;13961;51.178;4.448;2022-09-30T04:31:17;8.60;99.90
25949;DHT22;13961;51.178;4.448;2022-09-30T04:33:44;8.60;99.90
25949;DHT22;13961;51.178;4.448;2022-09-30T04:36:10;9.10;99.90
25949;DHT22;13961;51.178;4.448;2022-09-30T04:38:35;9.00;99.90
25949;DHT22;13961;51.178;4.448;2022-09-30T04:41:04;8.70;99.90
25949;DHT22;13961;51.178;4.448;2022-09-30T04:43:30;8.70;99.90
25949;DHT22;13961;51.178;4.448;2022-09-30T04:45:56;8.80;99.90
25949;DHT22;13961;51.178;4.448;2022-09-30T04:48:22;8.90;99.90
25949;DHT22;13961;51.178;4.448;2022-09-30T04:50:49;8.90;99.90
25949;DHT22;13961;51.178;4.448;2022-09-30T04:53:17;8.70;99.90
25949;DHT22;13961;51.178;4.448;2022-09-30T04:55:44;8.80;99.90
25949;DHT22;13961;51.178;4.448;2022-09-30T04:58:11;8.90;99.90
25949;DHT22;13961;51.178;4.448;2022-09-30T05:00:37;8.80;99.90
25949;DHT22;13961;51.178;4.448;2022-09-30T05:03:04;8.80;99.90
25949;DHT22;13961;51.178;4.448;2022-09-30T05:05:30;8.90;99.90
25949;DHT22;13961;51.178;4.448;2022-09-30T05:08:04;8.80;99.90
25949;DHT22;13961;51.178;4.448;2022-09-30T05:10:30;8.90;99.90
25949;DHT22;13961;51.178;4.448;2022-09-30T05:12:56;8.90;99.90
25949;DHT22;13961;51.178;4.448;2022-09-30T05:15:23;8.90;99.90
25949;DHT22;13961;51.178;4.448;2022-09-30T05:17:48;8.80;99.90
25949;DHT22;13961;51.178;4.448;2022-09-30T05:20:14;8.80;99.90
25949;DHT22;13961;51.178;4.448;2022-09-30T05:22:40;8.90;99.90
25949;DHT22;13961;51.178;4.448;2022-09-30T05:25:07;8.90;99.90
25949;DHT22;13961;51.178;4.448;2022-09-30T05:27:32;8.90;99.90
25949;DHT22;13961;51.178;4.448;2022-09-30T05:29:58;8.80;99.90
25949;DHT22;13961;51.178;4.448;2022-09-30T05:32:24;8.80;99.90
25949;DHT22;13961;51.178;4.448;2022-09-30T05:34:50;8.90;99.90
25949;DHT22;13961;51.178;4.448;2022-09-30T05:37:16;9.10;99.90
25949;DHT22;13961;51.178;4.448;2022-09-30T05:39:42;9.00;99.90
25949;DHT22;13961;51.178;4.448;2022-09-30T05:42:07;8.90;99.90
25949;DHT22;13961;51.178;4.448;2022-09-30T05:44:33;9.10;99.90
25949;DHT22;13961;51.178;4.448;2022-09-30T05:47:01;8.90;99.90
25949;DHT22;13961;51.178;4.448;2022-09-30T05:49:27;8.80;99.90
25949;DHT22;13961;51.178;4.448;2022-09-30T05:51:52;8.80;99.90
25949;DHT22;13961;51.178;4.448;2022-09-30T05:54:18;8.80;99.90
25949;DHT22;13961;51.178;4.448;2022-09-30T05:56:44;8.90;99.90
25949;DHT22;13961;51.178;4.448;2022-09-30T05:59:10;9.00;99.90
25949;DHT22;13961;51.178;4.448;2022-09-30T06:01:36;8.80;99.90
25949;DHT22;13961;51.178;4.448;2022-09-30T06:04:01;9.10;99.90
25949;DHT22;13961;51.178;4.448;2022-09-30T06:06:27;9.10;99.90
25949;DHT22;13961;51.178;4.448;2022-09-30T06:08:54;9.10;99.90
25949;DHT22;13961;51.178;4.448;2022-09-30T06:11:21;8.90;99.90
25949;DHT22;13961;51.178;4.448;2022-09-30T06:13:50;8.90;99.90
25949;DHT22;13961;51.178;4.448;2022-09-30T06:16:16;8.70;99.90
25949;DHT22;13961;51.178;4.448;2022-09-30T06:18:43;8.90;99.90
25949;DHT22;13961;51.178;4.448;2022-09-30T06:21:11;9.00;99.90
25949;DHT22;13961;51.178;4.448;2022-09-30T06:23:36;9.10;99.90
25949;DHT22;13961;51.178;4.448;2022-09-30T06:26:04;9.20;99.90
25949;DHT22;13961;51.178;4.448;2022-09-30T06:28:30;9.20;99.90
25949;DHT22;13961;51.178;4.448;2022-09-30T06:31:00;9.20;99.90
25949;DHT22;13961;51.178;4.448;2022-09-30T06:33:26;9.50;99.90
25949;DHT22;13961;51.178;4.448;2022-09-30T06:35:53;9.40;99.90
25949;DHT22;13961;51.178;4.448;2022-09-30T06:38:19;9.40;99.90
25949;DHT22;13961;51.178;4.448;2022-09-30T06:40:48;9.40;99.90
25949;DHT22;13961;51.178;4.448;2022-09-30T06:43:14;9.40;99.90
25949;DHT22;13961;51.178;4.448;2022-09-30T06:45:39;9.60;99.90
25949;DHT22;13961;51.178;4.448;2022-09-30T06:48:05;9.50;99.90
25949;DHT22;13961;51.178;4.448;2022-09-30T06:50:33;9.70;99.90
25949;DHT22;13961;51.178;4.448;2022-09-30T06:53:00;10.50;99.90
25949;DHT22;13961;51.178;4.448;2022-09-30T06:55:27;11.60;99.90
25949;DHT22;13961;51.178;4.448;2022-09-30T06:57:54;12.60;99.90
25949;DHT22;13961;51.178;4.448;2022-09-30T07:00:20;13.50;99.90
25949;DHT22;13961;51.178;4.448;2022-09-30T07:02:46;14.50;99.90
25949;DHT22;13961;51.178;4.448;2022-09-30T07:05:13;15.60;99.90
25949;DHT22;13961;51.178;4.448;2022-09-30T07:07:40;16.50;99.90
25949;DHT22;13961;51.178;4.448;2022-09-30T07:10:07;17.40;99.90
25949;DHT22;13961;51.178;4.448;2022-09-30T07:12:33;18.00;99.90
25949;DHT22;13961;51.178;4.448;2022-09-30T07:14:59;18.80;99.90
25949;DHT22;13961;51.178;4.448;2022-09-30T07:17:26;19.10;99.90
25949;DHT22;13961;51.178;4.448;2022-09-30T07:19:51;19.40;99.90
25949;DHT22;13961;51.178;4.448;2022-09-30T07:22:18;19.70;99.90
25949;DHT22;13961;51.178;4.448;2022-09-30T07:24:55;20.10;99.90
25949;DHT22;13961;51.178;4.448;2022-09-30T07:27:21;20.30;99.90
25949;DHT22;13961;51.178;4.448;2022-09-30T07:29:47;19.80;99.90
25949;DHT22;13961;51.178;4.448;2022-09-30T07:32:13;20.00;99.90
25949;DHT22;13961;51.178;4.448;2022-09-30T07:34:40;19.70;99.90
25949;DHT22;13961;51.178;4.448;2022-09-30T07:37:10;19.40;99.90
25949;DHT22;13961;51.178;4.448;2022-09-30T07:39:37;19.40;99.90
25949;DHT22;13961;51.178;4.448;2022-09-30T07:42:03;20.00;99.90
25949;DHT22;13961;51.178;4.448;2022-09-30T07:44:30;20.70;99.90
25949;DHT22;13961;51.178;4.448;2022-09-30T07:46:56;21.10;99.90
25949;DHT22;13961;51.178;4.448;2022-09-30T07:49:22;21.40;99.90
25949;DHT22;13961;51.178;4.448;2022-09-30T07:51:54;20.30;99.90
25949;DHT22;13961;51.178;4.448;2022-09-30T07:54:23;19.80;99.90
25949;DHT22;13961;51.178;4.448;2022-09-30T07:56:50;20.10;99.90
25949;DHT22;13961;51.178;4.448;2022-09-30T07:59:17;19.80;99.90
25949;DHT22;13961;51.178;4.448;2022-09-30T08:01:43;19.40;99.90
25949;DHT22;13961;51.178;4.448;2022-09-30T08:04:10;20.30;99.90
25949;DHT22;13961;51.178;4.448;2022-09-30T08:06:38;20.80;99.90
25949;DHT22;13961;51.178;4.448;2022-09-30T08:09:04;20.90;99.90
25949;DHT22;13961;51.178;4.448;2022-09-30T08:11:48;21.00;99.90
25949;DHT22;13961;51.178;4.448;2022-09-30T08:14:16;20.70;99.90
25949;DHT22;13961;51.178;4.448;2022-09-30T08:16:42;20.00;99.90
25949;DHT22;13961;51.178;4.448;2022-09-30T08:19:13;19.30;99.90
25949;DHT22;13961;51.178;4.448;2022-09-30T08:21:40;19.60;99.90
25949;DHT22;13961;51.178;4.448;2022-09-30T08:24:06;19.70;99.90
25949;DHT22;13961;51.178;4.448;2022-09-30T08:26:32;19.30;99.90
25949;DHT22;13961;51.178;4.448;2022-09-30T08:28:58;19.50;99.90
25949;DHT22;13961;51.178;4.448;2022-09-30T08:31:24;19.20;99.90
25949;DHT22;13961;51.178;4.448;2022-09-30T08:33:50;18.60;99.90
25949;DHT22;13961;51.178;4.448;2022-09-30T08:36:20;18.60;99.90
25949;DHT22;13961;51.178;4.448;2022-09-30T08:38:46;18.30;99.90
25949;DHT22;13961;51.178;4.448;2022-09-30T08:52:26;18.30;99.90
25949;DHT22;13961;51.178;4.448;2022-09-30T08:54:53;17.30;99.90
25949;DHT22;13961;51.178;4.448;2022-09-30T08:57:20;16.10;99.90
25949;DHT22;13961;51.178;4.448;2022-09-30T08:59:53;16.10;99.90
25949;DHT22;13961;51.178;4.448;2022-09-30T09:02:47;15.90;99.90
25949;DHT22;13961;51.178;4.448;2022-09-30T09:09:01;15.90;99.90
25949;DHT22;13961;51.178;4.448;2022-09-30T09:22:34;15.70;99.90
25949;DHT22;13961;51.178;4.448;2022-09-30T09:25:03;15.80;99.90
25949;DHT22;13961;51.178;4.448;2022-09-30T09:30:23;15.80;99.90
25949;DHT22;13961;51.178;4.448;2022-09-30T09:32:51;16.00;99.90
25949;DHT22;13961;51.178;4.448;2022-09-30T09:35:46;16.10;99.90
25949;DHT22;13961;51.178;4.448;2022-09-30T09:38:30;16.10;99.90
25949;DHT22;13961;51.178;4.448;2022-09-30T09:41:16;16.20;99.90
25949;DHT22;13961;51.178;4.448;2022-09-30T09:46:47;16.10;99.90
25949;DHT22;13961;51.178;4.448;2022-09-30T09:54:13;16.50;99.90
25949;DHT22;13961;51.178;4.448;2022-09-30T09:56:40;16.40;99.90
25949;DHT22;13961;51.178;4.448;2022-09-30T09:59:17;16.20;99.90
25949;DHT22;13961;51.178;4.448;2022-09-30T10:01:46;16.30;99.90
25949;DHT22;13961;51.178;4.448;2022-09-30T10:06:55;16.70;99.90
25949;DHT22;13961;51.178;4.448;2022-09-30T10:09:27;16.70;99.90
25949;DHT22;13961;51.178;4.448;2022-09-30T10:14:37;17.10;99.90
25949;DHT22;13961;51.178;4.448;2022-09-30T10:17:26;16.90;99.90
25949;DHT22;13961;51.178;4.448;2022-09-30T10:20:05;16.90;99.90
25949;DHT22;13961;51.178;4.448;2022-09-30T10:22:33;17.00;99.90
25949;DHT22;13961;51.178;4.448;2022-09-30T10:27:34;16.90;99.90
25949;DHT22;13961;51.178;4.448;2022-09-30T10:30:00;17.00;99.90
25949;DHT22;13961;51.178;4.448;2022-09-30T10:32:27;17.00;99.90
25949;DHT22;13961;51.178;4.448;2022-09-30T10:35:05;17.00;99.90
25949;DHT22;13961;51.178;4.448;2022-09-30T10:37:31;16.90;99.90
25949;DHT22;13961;51.178;4.448;2022-09-30T10:42:28;17.00;99.90
25949;DHT22;13961;51.178;4.448;2022-09-30T10:47:45;16.90;99.90
25949;DHT22;13961;51.178;4.448;2022-09-30T10:50:14;16.90;99.90
25949;DHT22;13961;51.178;4.448;2022-09-30T10:53:09;17.30;99.90
25949;DHT22;13961;51.178;4.448;2022-09-30T10:55:45;17.60;99.90
25949;DHT22;13961;51.178;4.448;2022-09-30T10:58:36;17.60;99.90
25949;DHT22;13961;51.178;4.448;2022-09-30T11:01:24;17.60;99.90
25949;DHT22;13961;51.178;4.448;2022-09-30T11:04:12;17.80;99.90
25949;DHT22;13961;51.178;4.448;2022-09-30T11:06:43;17.40;99.90
25949;DHT22;13961;51.178;4.448;2022-09-30T11:09:18;17.60;99.90
25949;DHT22;13961;51.178;4.448;2022-09-30T11:11:52;17.80;99.90
25949;DHT22;13961;51.178;4.448;2022-09-30T11:14:30;17.60;99.90
25949;DHT22;13961;51.178;4.448;2022-09-30T11:17:26;17.80;99.90
25949;DHT22;13961;51.178;4.448;2022-09-30T11:20:02;17.90;99.90
25949;DHT22;13961;51.178;4.448;2022-09-30T11:22:55;17.80;99.90
25949;DHT22;13961;51.178;4.448;2022-09-30T11:25:32;18.00;99.90
25949;DHT22;13961;51.178;4.448;2022-09-30T11:28:15;17.90;99.90
25949;DHT22;13961;51.178;4.448;2022-09-30T11:30:50;18.00;99.90
25949;DHT22;13961;51.178;4.448;2022-09-30T11:39:00;18.30;99.90
25949;DHT22;13961;51.178;4.448;2022-09-30T11:41:33;18.40;99.90
25949;DHT22;13961;51.178;4.448;2022-09-30T11:44:30;18.20;99.90
25949;DHT22;13961;51.178;4.448;2022-09-30T11:47:24;18.30;99.90
25949;DHT22;13961;51.178;4.448;2022-09-30T11:58:13;19.00;99.90
25949;DHT22;13961;51.178;4.448;2022-09-30T12:00:43;19.20;99.90
25949;DHT22;13961;51.178;4.448;2022-09-30T12:03:12;18.90;99.90
25949;DHT22;13961;51.178;4.448;2022-09-30T12:05:48;18.80;99.90
25949;DHT22;13961;51.178;4.448;2022-09-30T12:08:29;18.70;99.90
25949;DHT22;13961;51.178;4.448;2022-09-30T12:10:59;18.50;99.90
25949;DHT22;13961;51.178;4.448;2022-09-30T12:13:34;18.40;99.90
25949;DHT22;13961;51.178;4.448;2022-09-30T12:16:02;18.50;99.90
25949;DHT22;13961;51.178;4.448;2022-09-30T12:18:37;18.40;99.90
25949;DHT22;13961;51.178;4.448;2022-09-30T12:21:28;18.30;99.90
25949;DHT22;13961;51.178;4.448;2022-09-30T12:26:41;18.20;99.90
25949;DHT22;13961;51.178;4.448;2022-09-30T12:29:16;18.00;99.90
25949;DHT22;13961;51.178;4.448;2022-09-30T12:37:56;18.60;99.90
25949;DHT22;13961;51.178;4.448;2022-09-30T12:40:39;18.60;99.90
25949;DHT22;13961;51.178;4.448;2022-09-30T12:48:08;18.20;99.90
25949;DHT22;13961;51.178;4.448;2022-09-30T12:50:56;18.20;99.90
25949;DHT22;13961;51.178;4.448;2022-09-30T12:53:31;18.30;99.90
25949;DHT22;13961;51.178;4.448;2022-09-30T12:56:16;18.40;99.90
25949;DHT22;13961;51.178;4.448;2022-09-30T12:58:45;18.20;99.90
25949;DHT22;13961;51.178;4.448;2022-09-30T13:01:26;18.20;99.90
25949;DHT22;13961;51.178;4.448;2022-09-30T13:06:24;18.70;99.90
25949;DHT22;13961;51.178;4.448;2022-09-30T13:11:33;18.90;99.90
25949;DHT22;13961;51.178;4.448;2022-09-30T13:14:28;19.10;99.90
25949;DHT22;13961;51.178;4.448;2022-09-30T13:17:23;19.10;99.90
25949;DHT22;13961;51.178;4.448;2022-09-30T13:19:51;19.40;99.90
25949;DHT22;13961;51.178;4.448;2022-09-30T13:27:51;19.20;99.90
25949;DHT22;13961;51.178;4.448;2022-09-30T13:33:28;19.10;99.90
25949;DHT22;13961;51.178;4.448;2022-09-30T13:35:57;19.00;99.90
25949;DHT22;13961;51.178;4.448;2022-09-30T13:38:34;19.00;99.90
25949;DHT22;13961;51.178;4.448;2022-09-30T13:43:40;18.90;99.90
25949;DHT22;13961;51.178;4.448;2022-09-30T13:46:29;18.80;99.90
25949;DHT22;13961;51.178;4.448;2022-09-30T13:49:11;18.90;99.90
25949;DHT22;13961;51.178;4.448;2022-09-30T13:51:38;18.80;99.90
25949;DHT22;13961;51.178;4.448;2022-09-30T13:54:29;18.80;99.90
25949;DHT22;13961;51.178;4.448;2022-09-30T13:56:59;18.60;99.90
25949;DHT22;13961;51.178;4.448;2022-09-30T13:59:40;18.60;99.90
25949;DHT22;13961;51.178;4.448;2022-09-30T14:19:04;18.80;99.90
25949;DHT22;13961;51.178;4.448;2022-09-30T14:32:20;18.40;99.90
25949;DHT22;13961;51.178;4.448;2022-09-30T14:34:50;18.50;99.90
25949;DHT22;13961;51.178;4.448;2022-09-30T14:37:32;18.70;99.90
25949;DHT22;13961;51.178;4.448;2022-09-30T14:40:00;18.90;99.90
25949;DHT22;13961;51.178;4.448;2022-09-30T14:42:32;19.10;99.90
25949;DHT22;13961;51.178;4.448;2022-09-30T14:45:02;19.30;99.90
25949;DHT22;13961;51.178;4.448;2022-09-30T14:47:36;19.20;99.90
25949;DHT22;13961;51.178;4.448;2022-09-30T14:50:08;19.00;99.90
25949;DHT22;13961;51.178;4.448;2022-09-30T14:52:40;18.70;99.90
25949;DHT22;13961;51.178;4.448;2022-09-30T14:55:28;18.50;99.90
25949;DHT22;13961;51.178;4.448;2022-09-30T14:58:26;18.40;99.90
25949;DHT22;13961;51.178;4.448;2022-09-30T15:01:17;18.60;99.90
25949;DHT22;13961;51.178;4.448;2022-09-30T15:03:46;18.60;99.90
25949;DHT22;13961;51.178;4.448;2022-09-30T15:06:24;18.80;99.90
25949;DHT22;13961;51.178;4.448;2022-09-30T15:09:06;18.70;99.90
25949;DHT22;13961;51.178;4.448;2022-09-30T15:11:33;18.30;99.90
25949;DHT22;13961;51.178;4.448;2022-09-30T15:14:03;18.20;99.90
25949;DHT22;13961;51.178;4.448;2022-09-30T15:16:30;18.00;99.90
25949;DHT22;13961;51.178;4.448;2022-09-30T15:18:57;18.00;99.90
25949;DHT22;13961;51.178;4.448;2022-09-30T15:21:25;18.00;99.90
25949;DHT22;13961;51.178;4.448;2022-09-30T15:23:55;18.00;99.90
25949;DHT22;13961;51.178;4.448;2022-09-30T15:26:24;18.00;99.90
25949;DHT22;13961;51.178;4.448;2022-09-30T15:28:50;17.70;99.90
25949;DHT22;13961;51.178;4.448;2022-09-30T15:31:29;17.70;99.90
25949;DHT22;13961;51.178;4.448;2022-09-30T15:34:17;17.80;99.90
25949;DHT22;13961;51.178;4.448;2022-09-30T15:36:45;17.80;99.90
25949;DHT22;13961;51.178;4.448;2022-09-30T15:39:29;17.50;99.90
25949;DHT22;13961;51.178;4.448;2022-09-30T15:44:57;17.40;99.90
25949;DHT22;13961;51.178;4.448;2022-09-30T15:47:25;17.50;99.90
25949;DHT22;13961;51.178;4.448;2022-09-30T15:49:52;17.60;99.90
25949;DHT22;13961;51.178;4.448;2022-09-30T15:52:36;17.70;99.90
25949;DHT22;13961;51.178;4.448;2022-09-30T15:58:00;17.50;99.90
25949;DHT22;13961;51.178;4.448;2022-09-30T16:00:35;17.40;99.90
25949;DHT22;13961;51.178;4.448;2022-09-30T16:03:29;17.40;99.90
25949;DHT22;13961;51.178;4.448;2022-09-30T16:06:10;17.00;99.90
25949;DHT22;13961;51.178;4.448;2022-09-30T16:08:48;17.00;99.90
25949;DHT22;13961;51.178;4.448;2022-09-30T16:11:21;17.10;99.90
25949;DHT22;13961;51.178;4.448;2022-09-30T16:13:48;17.10;99.90
25949;DHT22;13961;51.178;4.448;2022-09-30T16:16:18;17.00;99.90
25949;DHT22;13961;51.178;4.448;2022-09-30T16:18:45;16.80;99.90
25949;DHT22;13961;51.178;4.448;2022-09-30T16:21:43;16.70;99.90
25949;DHT22;13961;51.178;4.448;2022-09-30T16:26:57;16.70;99.90
25949;DHT22;13961;51.178;4.448;2022-09-30T16:29:26;16.60;99.90
25949;DHT22;13961;51.178;4.448;2022-09-30T16:31:54;16.60;99.90
25949;DHT22;13961;51.178;4.448;2022-09-30T16:34:24;16.40;99.90
25949;DHT22;13961;51.178;4.448;2022-09-30T16:36:52;16.30;99.90
25949;DHT22;13961;51.178;4.448;2022-09-30T16:39:18;16.40;99.90
25949;DHT22;13961;51.178;4.448;2022-09-30T16:41:44;16.40;99.90
25949;DHT22;13961;51.178;4.448;2022-09-30T16:44:10;16.50;99.90
25949;DHT22;13961;51.178;4.448;2022-09-30T16:46:36;16.40;99.90
25949;DHT22;13961;51.178;4.448;2022-09-30T16:49:16;16.40;99.90
25949;DHT22;13961;51.178;4.448;2022-09-30T16:51:42;16.30;99.90
25949;DHT22;13961;51.178;4.448;2022-09-30T16:54:09;16.20;99.90
25949;DHT22;13961;51.178;4.448;2022-09-30T16:56:35;16.20;99.90
25949;DHT22;13961;51.178;4.448;2022-09-30T16:59:00;16.30;99.90
25949;DHT22;13961;51.178;4.448;2022-09-30T17:01:27;16.20;99.90
25949;DHT22;13961;51.178;4.448;2022-09-30T17:03:53;16.20;99.90
25949;DHT22;13961;51.178;4.448;2022-09-30T17:06:24;16.30;99.90
25949;DHT22;13961;51.178;4.448;2022-09-30T17:08:50;16.20;99.90
25949;DHT22;13961;51.178;4.448;2022-09-30T17:11:18;16.20;99.90
25949;DHT22;13961;51.178;4.448;2022-09-30T17:13:44;16.20;99.90
25949;DHT22;13961;51.178;4.448;2022-09-30T17:16:11;16.10;99.90
25949;DHT22;13961;51.178;4.448;2022-09-30T17:18:36;16.10;99.90
25949;DHT22;13961;51.178;4.448;2022-09-30T17:21:02;16.00;99.90
25949;DHT22;13961;51.178;4.448;2022-09-30T17:23:28;16.00;99.90
25949;DHT22;13961;51.178;4.448;2022-09-30T17:25:54;16.00;99.90
25949;DHT22;13961;51.178;4.448;2022-09-30T17:28:20;15.90;99.90
25949;DHT22;13961;51.178;4.448;2022-09-30T17:30:47;16.00;99.90
25949;DHT22;13961;51.178;4.448;2022-09-30T17:33:14;15.90;99.90
25949;DHT22;13961;51.178;4.448;2022-09-30T17:35:39;15.70;99.90
25949;DHT22;13961;51.178;4.448;2022-09-30T17:38:07;15.70;99.90
25949;DHT22;13961;51.178;4.448;2022-09-30T17:40:33;15.60;99.90
25949;DHT22;13961;51.178;4.448;2022-09-30T17:43:17;15.50;99.90
25949;DHT22;13961;51.178;4.448;2022-09-30T17:45:44;15.50;99.90
25949;DHT22;13961;51.178;4.448;2022-09-30T17:48:14;15.50;99.90
25949;DHT22;13961;51.178;4.448;2022-09-30T17:50:43;15.50;99.90
25949;DHT22;13961;51.178;4.448;2022-09-30T17:53:10;15.40;99.90
25949;DHT22;13961;51.178;4.448;2022-09-30T17:55:41;15.30;99.90
25949;DHT22;13961;51.178;4.448;2022-09-30T17:58:08;15.30;99.90
25949;DHT22;13961;51.178;4.448;2022-09-30T18:00:34;15.30;99.90
25949;DHT22;13961;51.178;4.448;2022-09-30T18:03:01;15.40;99.90
25949;DHT22;13961;51.178;4.448;2022-09-30T18:05:28;15.40;99.90
25949;DHT22;13961;51.178;4.448;2022-09-30T18:07:54;15.40;99.90
25949;DHT22;13961;51.178;4.448;2022-09-30T18:10:21;15.50;99.90
25949;DHT22;13961;51.178;4.448;2022-09-30T18:12:47;15.60;99.90
25949;DHT22;13961;51.178;4.448;2022-09-30T18:15:14;15.60;99.90
25949;DHT22;13961;51.178;4.448;2022-09-30T18:17:41;15.40;99.90
25949;DHT22;13961;51.178;4.448;2022-09-30T18:20:07;15.40;99.90
25949;DHT22;13961;51.178;4.448;2022-09-30T18:22:33;15.40;99.90
25949;DHT22;13961;51.178;4.448;2022-09-30T18:24:58;15.40;99.90
25949;DHT22;13961;51.178;4.448;2022-09-30T18:27:42;15.50;99.90
25949;DHT22;13961;51.178;4.448;2022-09-30T18:30:08;15.40;99.90
25949;DHT22;13961;51.178;4.448;2022-09-30T18:32:36;15.40;99.90
25949;DHT22;13961;51.178;4.448;2022-09-30T18:35:02;15.30;99.90
25949;DHT22;13961;51.178;4.448;2022-09-30T18:37:31;15.30;99.90
25949;DHT22;13961;51.178;4.448;2022-09-30T18:39:57;15.20;99.90
25949;DHT22;13961;51.178;4.448;2022-09-30T18:42:23;15.30;99.90
25949;DHT22;13961;51.178;4.448;2022-09-30T18:44:49;15.30;99.90
25949;DHT22;13961;51.178;4.448;2022-09-30T18:47:16;15.40;99.90
25949;DHT22;13961;51.178;4.448;2022-09-30T18:49:43;15.30;99.90
25949;DHT22;13961;51.178;4.448;2022-09-30T18:52:09;15.20;99.90
25949;DHT22;13961;51.178;4.448;2022-09-30T18:54:34;15.20;99.90
25949;DHT22;13961;51.178;4.448;2022-09-30T18:57:00;15.20;99.90
25949;DHT22;13961;51.178;4.448;2022-09-30T18:59:25;15.20;99.90
25949;DHT22;13961;51.178;4.448;2022-09-30T19:01:54;15.30;99.90
25949;DHT22;13961;51.178;4.448;2022-09-30T19:04:22;15.30;99.90
25949;DHT22;13961;51.178;4.448;2022-09-30T19:06:48;15.20;99.90
25949;DHT22;13961;51.178;4.448;2022-09-30T19:09:14;15.20;99.90
25949;DHT22;13961;51.178;4.448;2022-09-30T19:11:41;15.10;99.90
25949;DHT22;13961;51.178;4.448;2022-09-30T19:14:11;15.10;99.90